createdAt,value
2023-02-11T00:02:33.426Z,78.90
2023-02-11T00:05:37.959Z,89.68
2023-02-11T00:08:42.173Z,91.18
2023-02-11T00:11:46.756Z,73.25
2023-02-11T00:14:51.205Z,88.72
2023-02-11T00:17:55.506Z,80.00
2023-02-11T00:20:59.809Z,86.63
2023-02-11T00:24:04.597Z,88.97
2023-02-11T00:27:10.491Z,83.53
2023-02-11T00:30:15.468Z,87.18
2023-02-11T00:33:19.816Z,86.88
2023-02-11T00:36:27.957Z,90.28
2023-02-11T00:39:32.406Z,79.72
2023-02-11T00:42:37.375Z,82.18
2023-02-11T00:45:41.818Z,80.32
2023-02-11T00:48:46.430Z,95.28
2023-02-11T00:51:50.856Z,83.85
2023-02-11T00:54:55.255Z,83.88
2023-02-11T00:58:00.147Z,89.13
2023-02-11T01:01:05.416Z,90.13
2023-02-11T01:04:10.106Z,104.53
2023-02-11T01:07:14.632Z,84.32
2023-02-11T01:10:19.363Z,88.95
2023-02-11T01:13:25.318Z,85.68
2023-02-11T01:16:30.002Z,90.53
2023-02-11T01:19:34.142Z,84.50
2023-02-11T01:22:39.601Z,87.28
2023-02-11T01:25:44.136Z,90.93
2023-02-11T01:28:48.566Z,84.78
2023-02-11T01:31:52.991Z,106.13
2023-02-11T01:34:57.355Z,103.95
2023-02-11T01:38:01.741Z,101.13
2023-02-11T01:41:11.089Z,114.13
2023-02-11T01:44:40.138Z,87.68
2023-02-11T01:47:44.611Z,97.95
2023-02-11T01:50:54.895Z,110.32
2023-02-11T01:54:19.371Z,101.15
2023-02-11T02:00:41.687Z,103.28
2023-02-11T02:03:48.896Z,99.75
2023-02-11T02:07:02.617Z,102.82
2023-02-11T02:10:17.122Z,104.63
2023-02-11T02:13:22.878Z,106.80
2023-02-11T02:16:35.055Z,101.50
2023-02-11T02:20:31.475Z,110.38
2023-02-11T02:23:50.567Z,99.78
2023-02-11T02:27:04.214Z,99.18
2023-02-11T02:31:18.363Z,96.13
2023-02-11T02:34:35.378Z,89.65
2023-02-11T02:38:07.990Z,90.78
2023-02-11T02:41:17.668Z,82.85
2023-02-11T02:44:22.939Z,89.85
2023-02-11T02:47:27.504Z,88.60
2023-02-11T02:50:36.635Z,92.85
2023-02-11T02:54:06.936Z,81.78
2023-02-11T02:57:47.668Z,83.15
2023-02-11T03:01:38.710Z,69.22
2023-02-11T03:04:53.748Z,75.32
2023-02-11T03:08:27.426Z,71.53
2023-02-11T03:11:32.514Z,75.53
2023-02-11T03:14:38.961Z,79.20
2023-02-11T03:17:47.761Z,70.68
2023-02-11T03:20:54.383Z,83.15
2023-02-11T03:24:05.871Z,84.55
2023-02-11T03:27:25.902Z,68.10
2023-02-11T03:30:52.917Z,82.53
2023-02-11T03:34:23.813Z,61.28
2023-02-11T03:37:39.828Z,74.07
2023-02-11T03:40:45.691Z,70.47
2023-02-11T03:43:55.990Z,74.70
2023-02-11T03:47:02.812Z,86.13
2023-02-11T03:50:10.292Z,66.35
2023-02-11T03:53:15.725Z,88.45
2023-02-11T03:56:26.957Z,82.15
2023-02-11T03:59:31.645Z,72.88
2023-02-11T04:02:38.332Z,79.53
2023-02-11T04:05:42.652Z,87.88
2023-02-11T04:08:46.961Z,80.10
2023-02-11T04:11:51.287Z,89.13
2023-02-11T04:14:55.695Z,98.25
2023-02-11T04:18:00.087Z,85.03
2023-02-11T04:21:05.140Z,88.22
2023-02-11T04:24:09.765Z,87.55
2023-02-11T04:27:14.385Z,86.45
2023-02-11T04:30:19.157Z,89.90
2023-02-11T04:33:24.258Z,102.80
2023-02-11T04:36:28.643Z,115.47
2023-02-11T04:39:33.163Z,96.00
2023-02-11T04:42:37.530Z,108.35
2023-02-11T04:45:41.926Z,103.25
2023-02-11T04:48:46.509Z,97.15
2023-02-11T04:51:50.881Z,103.78
2023-02-11T04:54:55.054Z,109.13
2023-02-11T04:57:59.285Z,120.65
2023-02-11T05:01:13.270Z,106.60
2023-02-11T05:04:18.074Z,110.72
2023-02-11T05:07:22.397Z,122.80
2023-02-11T05:10:27.197Z,107.82
2023-02-11T05:13:32.476Z,111.70
2023-02-11T05:16:37.061Z,111.13
2023-02-11T05:19:42.915Z,114.22
2023-02-11T05:22:47.682Z,136.70
2023-02-11T05:25:52.011Z,118.50
2023-02-11T05:28:57.063Z,102.03
2023-02-11T05:32:01.643Z,126.45
2023-02-11T05:35:06.326Z,102.18
2023-02-11T05:38:10.635Z,96.65
2023-02-11T05:41:15.159Z,87.18
2023-02-11T05:44:19.600Z,116.70
2023-02-11T05:47:24.199Z,92.47
2023-02-11T05:50:28.533Z,95.63
2023-02-11T05:53:32.734Z,98.20
2023-02-11T05:56:37.081Z,92.88
2023-02-11T05:59:41.586Z,99.53
2023-02-11T06:02:46.157Z,84.25
2023-02-11T06:05:50.963Z,86.35
2023-02-11T06:08:56.529Z,95.55
2023-02-11T06:12:00.758Z,88.70
2023-02-11T06:15:07.010Z,86.07
2023-02-11T06:18:11.256Z,89.55
2023-02-11T06:21:16.048Z,91.97
2023-02-11T06:24:38.319Z,99.28
2023-02-11T06:27:45.437Z,78.57
2023-02-11T06:30:49.930Z,86.22
2023-02-11T06:33:55.083Z,91.53
2023-02-11T06:36:59.309Z,73.93
2023-02-11T06:40:04.139Z,90.78
2023-02-11T06:43:08.803Z,70.75
2023-02-11T06:46:13.432Z,77.10
2023-02-11T06:49:17.851Z,80.72
2023-02-11T06:52:22.022Z,78.47
2023-02-11T06:55:27.212Z,81.70
2023-02-11T06:58:32.491Z,88.90
2023-02-11T07:01:36.967Z,88.38
2023-02-11T07:04:41.627Z,78.78
2023-02-11T07:07:46.513Z,79.95
2023-02-11T07:10:51.098Z,87.55
2023-02-11T07:14:04.965Z,89.60
2023-02-11T07:17:09.309Z,84.50
2023-02-11T07:20:14.963Z,80.18
2023-02-11T07:23:19.413Z,84.72
2023-02-11T07:26:25.836Z,72.65
2023-02-11T07:29:30.105Z,79.72
2023-02-11T07:32:34.463Z,74.75
2023-02-11T07:35:41.031Z,92.63
2023-02-11T07:38:47.505Z,86.65
2023-02-11T07:41:52.013Z,80.20
2023-02-11T07:44:56.297Z,77.35
2023-02-11T07:48:00.703Z,83.40
2023-02-11T07:51:10.122Z,76.45
2023-02-11T07:54:14.683Z,87.63
2023-02-11T07:57:19.255Z,81.65
2023-02-11T08:00:23.889Z,86.60
2023-02-11T08:03:28.344Z,85.40
2023-02-11T08:06:35.434Z,88.07
2023-02-11T08:09:39.689Z,78.70
2023-02-11T08:12:44.133Z,89.32
2023-02-11T08:15:48.921Z,85.55
2023-02-11T08:18:57.601Z,89.43
2023-02-11T08:22:02.813Z,103.18
2023-02-11T08:25:07.563Z,87.85
2023-02-11T08:28:11.876Z,83.60
2023-02-11T08:31:25.114Z,92.20
2023-02-11T08:34:29.860Z,86.47
2023-02-11T08:37:34.596Z,82.32
2023-02-11T08:40:39.077Z,96.57
2023-02-11T08:43:45.926Z,108.28
2023-02-11T08:46:51.420Z,84.30
2023-02-11T08:49:55.805Z,85.65
2023-02-11T08:53:00.761Z,100.70
2023-02-11T08:56:06.226Z,93.32
2023-02-11T08:59:15.010Z,86.32
2023-02-11T09:02:19.485Z,92.25
2023-02-11T09:05:24.114Z,88.50
2023-02-11T09:08:28.449Z,89.03
2023-02-11T09:11:35.562Z,70.25
2023-02-11T09:14:41.358Z,91.78
2023-02-11T09:17:45.884Z,93.13
2023-02-11T09:20:50.734Z,77.35
2023-02-11T09:23:55.819Z,85.38
2023-02-11T09:27:00.133Z,82.65
2023-02-11T09:30:05.758Z,90.88
2023-02-11T09:33:10.509Z,80.95
2023-02-11T09:36:22.615Z,87.45
2023-02-11T09:39:27.484Z,83.75
2023-02-11T09:43:08.874Z,88.35
2023-02-11T09:46:20.037Z,66.68
2023-02-11T09:49:48.917Z,76.88
2023-02-11T09:53:27.519Z,78.15
2023-02-11T09:56:32.118Z,65.13
2023-02-11T09:59:36.523Z,84.57
2023-02-11T10:03:25.876Z,81.20
2023-02-11T10:06:30.745Z,74.18
2023-02-11T10:09:53.069Z,63.67
2023-02-11T10:13:51.441Z,72.78
2023-02-11T10:17:14.606Z,55.35
2023-02-11T10:20:31.941Z,83.90
2023-02-11T10:23:45.618Z,70.35
2023-02-11T10:26:52.243Z,54.97
2023-02-11T10:30:16.585Z,70.05
2023-02-11T10:34:00.481Z,65.20
2023-02-11T10:37:04.992Z,67.03
2023-02-11T10:40:22.862Z,62.58
2023-02-11T10:43:30.766Z,85.43
2023-02-11T10:46:40.317Z,86.65
2023-02-11T10:49:46.973Z,83.40
2023-02-11T10:52:51.747Z,84.85
2023-02-11T10:55:59.694Z,61.42
2023-02-11T10:59:19.766Z,84.53
2023-02-11T11:02:34.331Z,60.22
2023-02-11T11:05:50.472Z,62.22
2023-02-11T11:08:55.227Z,76.47
2023-02-11T11:11:59.833Z,51.60
2023-02-11T11:15:10.191Z,52.88
2023-02-11T11:18:22.642Z,61.13
2023-02-11T11:21:44.228Z,48.30
2023-02-11T11:24:54.318Z,59.17
2023-02-11T11:28:03.292Z,48.03
2023-02-11T11:31:31.775Z,46.50
2023-02-11T11:34:52.654Z,65.82
2023-02-11T11:38:05.399Z,53.45
2023-02-11T11:41:59.873Z,55.53
2023-02-11T11:45:25.828Z,53.20
2023-02-11T11:48:40.184Z,55.10
2023-02-11T11:51:58.645Z,49.00
2023-02-11T11:55:26.638Z,47.90
2023-02-11T11:58:33.091Z,43.00
2023-02-11T12:02:52.056Z,67.88
2023-02-11T12:06:20.256Z,61.38
2023-02-11T12:09:45.728Z,50.08
2023-02-11T12:12:56.191Z,56.78
2023-02-11T12:16:13.955Z,52.58
2023-02-11T12:20:01.391Z,53.47
2023-02-11T12:23:48.123Z,60.10
2023-02-11T12:27:10.578Z,44.83
2023-02-11T12:30:33.526Z,48.67
2023-02-11T12:34:15.035Z,51.38
2023-02-11T12:37:44.356Z,52.13
2023-02-11T12:41:14.630Z,45.00
2023-02-11T12:44:52.282Z,50.42
2023-02-11T12:48:34.099Z,45.38
2023-02-11T12:51:47.139Z,44.72
2023-02-11T12:55:25.850Z,43.92
2023-02-11T12:58:44.552Z,35.55
2023-02-11T13:01:51.910Z,35.47
2023-02-11T13:05:05.520Z,44.83
2023-02-11T13:08:30.697Z,41.95
2023-02-11T13:11:51.853Z,49.20
2023-02-11T13:15:03.779Z,38.83
2023-02-11T13:18:32.406Z,36.80
2023-02-11T13:22:19.289Z,30.20
2023-02-11T13:25:57.183Z,28.48
2023-02-11T13:29:53.477Z,30.55
2023-02-11T13:32:58.032Z,55.08
2023-02-11T13:36:04.541Z,41.15
2023-02-11T13:39:21.277Z,43.58
2023-02-11T13:42:27.136Z,36.42
2023-02-11T13:45:40.342Z,43.72
2023-02-11T13:48:53.770Z,42.30
2023-02-11T13:52:02.786Z,37.95
2023-02-11T13:55:23.324Z,49.75
2023-02-11T13:58:27.911Z,40.80
2023-02-11T14:02:06.041Z,43.85
2023-02-11T14:05:45.371Z,48.67
2023-02-11T14:09:14.228Z,46.35
2023-02-11T14:12:34.264Z,47.85
2023-02-11T14:15:40.424Z,45.70
2023-02-11T14:18:45.081Z,52.53
2023-02-11T14:21:50.137Z,49.72
2023-02-11T14:25:00.924Z,43.15
2023-02-11T14:28:25.896Z,46.40
2023-02-11T14:32:06.136Z,46.70
2023-02-11T14:35:47.899Z,60.28
2023-02-11T14:39:25.330Z,38.63
2023-02-11T14:42:31.354Z,49.20
2023-02-11T14:45:38.013Z,39.60
2023-02-11T14:48:52.299Z,42.78
2023-02-11T14:52:06.197Z,51.03
2023-02-11T14:55:38.123Z,50.00
2023-02-11T14:58:51.999Z,62.47
2023-02-11T15:01:56.225Z,48.85
2023-02-11T15:05:26.142Z,46.10
2023-02-11T15:08:34.569Z,54.90
2023-02-11T15:11:43.228Z,52.83
2023-02-11T15:14:55.264Z,52.30
2023-02-11T15:18:03.430Z,47.65
2023-02-11T15:21:08.332Z,36.97
2023-02-11T15:24:31.768Z,56.45
2023-02-11T15:27:57.883Z,73.35
2023-02-11T15:31:16.203Z,55.53
2023-02-11T15:34:20.979Z,54.40
2023-02-11T15:37:32.119Z,45.88
2023-02-11T15:40:37.893Z,55.88
2023-02-11T15:43:53.025Z,44.95
2023-02-11T15:46:57.515Z,46.80
2023-02-11T15:50:02.444Z,67.85
2023-02-11T15:53:21.982Z,56.22
2023-02-11T15:56:43.583Z,54.65
2023-02-11T15:59:53.044Z,41.80
2023-02-11T16:02:57.517Z,48.38
2023-02-11T16:06:26.442Z,47.83
2023-02-11T16:09:35.118Z,67.35
2023-02-11T16:12:39.677Z,51.13
2023-02-11T16:15:57.259Z,59.05
2023-02-11T16:19:06.237Z,54.33
2023-02-11T16:22:20.382Z,64.05
2023-02-11T16:25:25.068Z,62.45
2023-02-11T16:28:29.763Z,58.38
2023-02-11T16:31:37.773Z,52.03
2023-02-11T16:34:42.692Z,61.30
2023-02-11T16:37:47.225Z,48.67
2023-02-11T16:40:51.875Z,59.03
2023-02-11T16:43:59.296Z,46.30
2023-02-11T16:47:06.855Z,54.88
2023-02-11T16:50:22.244Z,53.30
2023-02-11T16:53:26.670Z,57.95
2023-02-11T16:56:31.103Z,60.45
2023-02-11T16:59:35.115Z,52.50
2023-02-11T17:02:39.918Z,48.17
2023-02-11T17:05:58.320Z,48.25
2023-02-11T17:09:03.880Z,42.58
2023-02-11T17:12:08.459Z,48.15
2023-02-11T17:15:12.568Z,43.92
2023-02-11T17:18:16.946Z,34.72
2023-02-11T17:21:21.536Z,37.10
2023-02-11T17:24:26.235Z,37.55
2023-02-11T17:27:30.400Z,31.60
2023-02-11T17:30:35.398Z,29.48
2023-02-11T17:33:39.804Z,45.80
2023-02-11T17:36:44.803Z,33.90
2023-02-11T17:39:50.976Z,45.60
2023-02-11T17:42:55.427Z,30.80
2023-02-11T17:45:59.794Z,44.13
2023-02-11T17:49:04.994Z,46.47
2023-02-11T17:52:09.730Z,44.35
2023-02-11T17:55:14.686Z,39.72
2023-02-11T17:58:19.044Z,62.33
2023-02-11T18:01:26.645Z,39.90
2023-02-11T18:04:31.726Z,43.47
2023-02-11T18:07:36.260Z,50.70
2023-02-11T18:10:43.527Z,61.03
2023-02-11T18:13:54.273Z,42.50
2023-02-11T18:16:58.977Z,47.75
2023-02-11T18:20:04.885Z,53.58
2023-02-11T18:23:10.648Z,68.53
2023-02-11T18:26:17.917Z,59.45
2023-02-11T18:29:22.344Z,46.03
2023-02-11T18:32:27.119Z,37.58
2023-02-11T18:35:31.517Z,61.17
2023-02-11T18:38:36.167Z,46.00
2023-02-11T18:41:42.285Z,58.67
2023-02-11T18:44:46.317Z,60.10
2023-02-11T18:47:50.505Z,65.70
2023-02-11T18:50:55.766Z,71.70
2023-02-11T18:54:02.713Z,58.38
2023-02-11T18:57:07.652Z,59.28
2023-02-11T19:00:12.983Z,54.70
2023-02-11T19:03:17.821Z,41.47
2023-02-11T19:06:26.123Z,58.58
2023-02-11T19:09:30.896Z,58.67
2023-02-11T19:12:35.262Z,41.47
2023-02-11T19:15:44.856Z,69.65
2023-02-11T19:18:49.477Z,88.65
2023-02-11T19:21:55.430Z,79.22
2023-02-11T19:24:59.801Z,79.70
2023-02-11T19:28:04.183Z,83.78
2023-02-11T19:31:09.508Z,103.65
2023-02-11T19:34:16.774Z,158.73
2023-02-11T19:37:21.361Z,133.68
2023-02-11T19:40:25.954Z,113.32
2023-02-11T19:43:31.119Z,99.53
2023-02-11T19:46:40.661Z,103.40
2023-02-11T19:49:45.438Z,94.68
2023-02-11T19:52:49.598Z,75.15
2023-02-11T19:55:54.106Z,68.15
2023-02-11T19:59:01.995Z,79.13
2023-02-11T20:02:06.661Z,75.00
2023-02-11T20:05:11.139Z,110.57
2023-02-11T20:08:17.124Z,80.20
2023-02-11T20:11:22.673Z,75.82
2023-02-11T20:14:28.166Z,93.97
2023-02-11T20:17:32.700Z,79.65
2023-02-11T20:20:38.726Z,59.78
2023-02-11T20:23:44.867Z,75.30
2023-02-11T20:26:51.688Z,51.70
2023-02-11T20:29:56.102Z,70.53
2023-02-11T20:33:00.647Z,71.15
2023-02-11T20:36:13.856Z,68.15
2023-02-11T20:39:19.290Z,43.90
2023-02-11T20:42:24.107Z,62.72
2023-02-11T20:45:28.553Z,73.95
2023-02-11T20:48:34.087Z,100.47
2023-02-11T20:51:38.597Z,56.95
2023-02-11T20:54:43.072Z,66.00
2023-02-11T20:57:47.855Z,72.65
2023-02-11T21:00:52.569Z,67.13
2023-02-11T21:04:02.415Z,62.17
2023-02-11T21:07:06.992Z,68.53
2023-02-11T21:10:12.184Z,82.43
2023-02-11T21:13:16.858Z,68.07
2023-02-11T21:16:21.540Z,91.13
2023-02-11T21:19:26.431Z,70.22
2023-02-11T21:22:31.400Z,80.82
2023-02-11T21:25:35.943Z,83.55
2023-02-11T21:28:41.241Z,84.25
2023-02-11T21:31:46.262Z,100.93
2023-02-11T21:34:50.880Z,79.35
2023-02-11T21:37:55.184Z,93.03
2023-02-11T21:41:05.250Z,69.50
2023-02-11T21:44:09.797Z,70.32
2023-02-11T21:47:14.351Z,79.88
2023-02-11T21:50:19.211Z,74.57
2023-02-11T21:53:23.616Z,67.65
2023-02-11T21:56:30.067Z,86.68
2023-02-11T21:59:34.326Z,73.72
2023-02-11T22:02:39.193Z,81.55
2023-02-11T22:05:43.952Z,107.05
2023-02-11T22:08:50.066Z,99.53
2023-02-11T22:11:54.722Z,108.50
2023-02-11T22:14:58.831Z,99.43
2023-02-11T22:18:03.242Z,156.82
2023-02-11T22:21:12.622Z,103.35
2023-02-11T22:24:17.054Z,91.57
2023-02-11T22:27:21.921Z,98.22
2023-02-11T22:30:26.322Z,82.70
2023-02-11T22:33:31.140Z,65.68
2023-02-11T22:36:40.056Z,55.60
2023-02-11T22:39:44.950Z,48.83
2023-02-11T22:42:49.245Z,56.08
2023-02-11T22:45:56.460Z,61.20
2023-02-11T22:49:01.207Z,39.83
2023-02-11T22:52:05.455Z,37.42
2023-02-11T22:55:09.880Z,37.83
2023-02-11T22:58:14.192Z,27.08
2023-02-11T23:01:19.519Z,17.40
2023-02-11T23:04:23.886Z,19.83
2023-02-11T23:07:28.257Z,23.30
2023-02-11T23:10:36.306Z,29.13
2023-02-11T23:13:43.237Z,44.72
2023-02-11T23:16:51.163Z,38.22
2023-02-11T23:19:56.041Z,42.08
2023-02-11T23:23:00.499Z,53.83
2023-02-11T23:26:08.563Z,68.57
2023-02-11T23:29:13.334Z,72.30
2023-02-11T23:32:18.997Z,67.18
2023-02-11T23:35:24.402Z,76.28
2023-02-11T23:38:29.050Z,78.30
2023-02-11T23:41:33.589Z,86.47
2023-02-11T23:44:38.198Z,92.90
2023-02-11T23:47:42.568Z,86.15
2023-02-11T23:50:47.177Z,98.88
2023-02-11T23:53:52.888Z,83.30
2023-02-11T23:56:57.661Z,69.25
